Flight Track Log - Related Links

Times and Time Zones

All times are in EDT time to prevent confusion due to time zone crossing. See the RPA3392 flight status page for this flight to view local times or setup timezone preferences in your user account.

Time Position Orientation Groundspeed Altitude Reporting Facility
EDT Latitude Longitude Course Direction KTS MPH feet Rate Location/Type
Tue 10:28:00 PM 38.7833 -77.0333 83° East 183 211 2,500  Level Potomac TRACON
Tue 10:28:54 PM 38.7333 -77.0167 165° South 261 300 4,700 2,716 Climbing Potomac TRACON
Tue 10:30:28 PM 38.7289 -76.9142 93° East 268 308 9,200 2,748 Climbing Washington Center
Tue 10:31:29 PM 38.8125 -76.9078 North 236 272 11,800 2,557 Climbing Washington Center
Tue 10:32:00 PM 39.1167 -76.2837 90° East  Level FlightAware Approximate
Tue 10:32:30 PM 38.8978 -76.9092 359° North 266 306 14,400  Level Washington Center
Tue 10:33:00 PM 39.1556 -76.1607 83° East  Level FlightAware Approximate
Tue 10:33:31 PM 38.9775 -76.8625 24° Northeast 282 325 16,600  Level Washington Center
Tue 10:34:29 PM 39.0556 -76.7783 40° Northeast 317 365 17,700 1,261 Climbing Washington Center
Tue 10:35:30 PM 39.0964 -76.6506 68° East 347 399 19,100 1,587 Climbing Washington Center
Tue 10:36:30 PM 39.1122 -76.5011 82° East 369 425 20,900 1,678 Climbing Washington Center
Tue 10:37:28 PM 39.1339 -76.3517 79° East 396 456 22,400 1,050 Climbing Washington Center
Tue 10:38:30 PM 39.1536 -76.1939 81° East 419 482 23,000 300 Climbing Washington Center
Tue 10:39:28 PM 39.1753 -76.0281 80° East 432 497 23,000  Level Washington Center
Tue 10:40:29 PM 39.2028 -75.8756 77° East 432 497 23,000 200 Level Washington Center
Tue 10:41:28 PM 39.2842 -75.7606 48° Northeast 414 476 23,400 900 Climbing Washington Center
Tue 10:42:29 PM 39.3719 -75.6506 44° Northeast 420 483 24,800 1,328 Climbing Washington Center
Tue 10:43:30 PM 39.4594 -75.5378 45° Northeast 427 491 26,100 1,131 Climbing Washington Center
Tue 10:44:31 PM 39.5489 -75.4219 45° Northeast 433 498 27,100 1,008 Climbing Washington Center
Tue 10:45:29 PM 39.6381 -75.3033 46° Northeast 438 504 28,100 900 Climbing Washington Center
Tue 10:46:11 PM 39.6958 -75.2281 45° Northeast 463 533 28,600 529 Climbing New York Center
Tue 10:47:11 PM 39.7908 -75.0853 49° Northeast 483 556 29,000 200 Climbing New York Center
Tue 10:48:11 PM 39.8831 -74.9531 48° Northeast 477 549 29,000  Level New York Center
Tue 10:49:11 PM 39.9708 -74.8283 47° Northeast 482 555 29,000  Level New York Center
Tue 10:50:11 PM 40.0497 -74.7136 48° Northeast 475 547 29,000  Level New York Center
Tue 10:51:11 PM 40.1481 -74.5725 48° Northeast 475 547 29,000  Level New York Center
Tue 10:52:11 PM 40.2417 -74.4525 44° Northeast 475 547 29,000 -219 Level New York Center
Tue 10:54:23 PM 40.4544 -74.2236 39° Northeast 466 536 28,300 -688 Descending Boston Center
Tue 10:55:23 PM 40.5497 -74.1197 40° Northeast 460 529 26,800 -1,289 Descending Boston Center
Tue 10:56:24 PM 40.6556 -74.0050 39° Northeast 454 522 25,700 -1,289 Descending Boston Center
Tue 10:57:24 PM 40.7358 -73.9247 37° Northeast 436 502 24,200 -850 Descending Boston Center
Tue 10:58:24 PM 40.8267 -73.8253 40° Northeast 422 486 24,000 -150 Descending Boston Center
Tue 10:59:24 PM 40.9114 -73.7200 43° Northeast 416 479 23,900 -492 Descending Boston Center
Tue 11:00:26 PM 40.9981 -73.6089 44° Northeast 416 479 23,000 -496 Descending Boston Center
Tue 11:01:25 PM 41.1047 -73.5611 19° North 403 464 22,900 -555 Descending Boston Center
Tue 11:02:25 PM 41.2158 -73.5108 19° North 403 464 21,900 -992 Descending Boston Center
Tue 11:03:26 PM 41.3225 -73.4628 19° North 403 464 20,900 -1,160 Descending Boston Center
Tue 11:04:24 PM 41.4292 -73.4283 14° North 403 464 19,600 -1,424 Descending Boston Center
Tue 11:05:24 PM 41.5433 -73.4581 349° North 382 440 18,100 -1,438 Descending Boston Center
Tue 11:06:25 PM 41.6494 -73.4875 348° North 382 440 16,700 -1,361 Descending Boston Center
Tue 11:07:23 PM 41.7431 -73.5114 349° North 382 440 15,400 -1,450 Descending Boston Center
Tue 11:08:25 PM 41.8511 -73.5411 348° North 370 426 13,800 -1,472 Descending Boston Center
Tue 11:09:09 PM 41.9239 -73.5617 348° North 369 425 12,800 -1,397 Descending Boston Center
Tue 11:10:21 PM 42.0403 -73.5944 348° North 354 407 11,100 -824 Descending Boston Center
Tue 11:11:20 PM 42.1336 -73.6242 347° North 347 399 11,000 -49 Descending Boston Center
Tue 11:12:24 PM 42.2231 -73.6569 345° North 346 398 11,000 -726 Level Boston Center
Tue 11:13:24 PM 42.3019 -73.6836 346° North 275 316 9,500 -1,842 Descending Boston Center
Tue 11:14:18 PM 42.3725 -73.7047 348° North 279 321 7,500 -2,336 Descending Boston Center
Tue 11:15:17 PM 42.4453 -73.7314 345° North 271 312 5,100 -2,400 Descending Boston Center
Tue 11:16:18 PM 42.5219 -73.7556 347° North 263 303 2,700 -1,537 Descending Boston Center
Tue 11:17:18 PM 42.5842 -73.7794 344° North 223 257 2,000 -446 Descending Boston Center
Tue 11:18:19 PM 42.6339 -73.8003 343° North 172 198 1,800 -298 Descending Boston Center
Tue 11:19:19 PM 42.6778 -73.8042 356° North 149 171 1,400 -537 Descending Boston Center
Tue 11:20:22 PM 42.7172 -73.8050 359° North 133 153 700 -667 Descending Boston Center

Login

Don't have an account? Register now (free) for customized features, flight alerts, and more!